createdAt,value
2019-05-18T00:08:39.000Z,19
2019-05-18T00:18:39.000Z,18.9
2019-05-18T00:28:39.000Z,18.9
2019-05-18T00:38:43.000Z,18.8
2019-05-18T00:48:39.000Z,18.8
2019-05-18T00:58:39.000Z,18.7
2019-05-18T01:08:39.000Z,18.7
2019-05-18T01:18:39.000Z,18.6
2019-05-18T01:28:39.000Z,18.5
2019-05-18T01:38:39.000Z,18.4
2019-05-18T01:48:41.000Z,18.4
2019-05-18T01:58:42.000Z,18.3
2019-05-18T02:08:39.000Z,18.3
2019-05-18T02:18:39.000Z,18.2
2019-05-18T02:28:39.000Z,18.2
2019-05-18T02:38:41.000Z,18.2
2019-05-18T02:48:39.000Z,18.1
2019-05-18T02:58:39.000Z,18.1
2019-05-18T03:08:40.000Z,18
2019-05-18T03:18:39.000Z,18
2019-05-18T03:28:39.000Z,18
2019-05-18T03:38:39.000Z,18
2019-05-18T03:48:39.000Z,17.8
2019-05-18T03:58:39.000Z,17.8
2019-05-18T04:08:39.000Z,17.8
2019-05-18T04:28:40.000Z,17.7
2019-05-18T04:38:40.000Z,17.8
2019-05-18T04:48:40.000Z,17.7
2019-05-18T04:58:40.000Z,17.8
2019-05-18T05:08:40.000Z,18
2019-05-18T05:18:40.000Z,18.2
2019-05-18T05:28:40.000Z,18.3
2019-05-18T05:38:42.000Z,18.5
2019-05-18T05:48:40.000Z,18.7
2019-05-18T05:58:40.000Z,18.8
2019-05-18T06:08:40.000Z,18.9
2019-05-18T06:18:41.000Z,19
2019-05-18T06:28:40.000Z,19.1
2019-05-18T06:38:40.000Z,19.1
2019-05-18T06:48:40.000Z,19.2
2019-05-18T06:58:40.000Z,19.1
2019-05-18T07:08:40.000Z,19.2
2019-05-18T07:18:40.000Z,19.1
2019-05-18T07:28:40.000Z,19.2
2019-05-18T07:38:40.000Z,19.2
2019-05-18T07:48:40.000Z,19.5
2019-05-18T07:58:40.000Z,19.5
2019-05-18T08:08:40.000Z,19.8
2019-05-18T08:18:41.000Z,20.1
2019-05-18T08:38:40.000Z,20.1
2019-05-18T08:48:40.000Z,20.3
2019-05-18T08:58:40.000Z,20.3
2019-05-18T09:08:40.000Z,20.3
2019-05-18T09:18:41.000Z,20.3
2019-05-18T09:28:40.000Z,20.3
2019-05-18T09:38:40.000Z,20.3
2019-05-18T09:48:42.000Z,20.3
2019-05-18T09:58:40.000Z,20.3
2019-05-18T10:08:40.000Z,20.4
2019-05-18T10:18:41.000Z,20.4
2019-05-18T10:28:44.000Z,20.3
2019-05-18T10:38:43.000Z,20.4
2019-05-18T10:48:40.000Z,20.4
2019-05-18T10:58:41.000Z,20.4
2019-05-18T11:08:40.000Z,20.5
2019-05-18T11:18:41.000Z,20.5
2019-05-18T11:28:41.000Z,20.6
2019-05-18T11:38:41.000Z,20.6
2019-05-18T11:48:41.000Z,20.5
2019-05-18T11:58:41.000Z,20.6
2019-05-18T12:08:41.000Z,20.6
2019-05-18T12:18:41.000Z,20.8
2019-05-18T12:28:41.000Z,20.9
2019-05-18T12:38:41.000Z,21
2019-05-18T12:48:41.000Z,20.9
2019-05-18T12:58:41.000Z,21
2019-05-18T13:08:41.000Z,21
2019-05-18T13:18:41.000Z,21
2019-05-18T13:28:41.000Z,20.9
2019-05-18T13:38:41.000Z,20.8
2019-05-18T13:48:41.000Z,20.8
2019-05-18T13:58:41.000Z,20.7
2019-05-18T14:08:41.000Z,20.7
2019-05-18T14:18:44.000Z,20.7
2019-05-18T14:28:41.000Z,20.7
2019-05-18T14:48:42.000Z,20.7
2019-05-18T14:58:41.000Z,20.8
2019-05-18T15:08:41.000Z,20.8
2019-05-18T15:18:45.000Z,20.8
2019-05-18T15:28:43.000Z,20.8
2019-05-18T15:38:41.000Z,20.9
2019-05-18T15:58:41.000Z,20.9
2019-05-18T16:08:41.000Z,20.9
2019-05-18T16:18:41.000Z,20.9
2019-05-18T16:28:42.000Z,20.8
2019-05-18T16:38:41.000Z,21
2019-05-18T16:48:41.000Z,21
2019-05-18T16:58:41.000Z,21
2019-05-18T17:08:41.000Z,21
2019-05-18T17:18:41.000Z,21
2019-05-18T17:28:41.000Z,21.1
2019-05-18T17:38:41.000Z,21.1
2019-05-18T17:48:42.000Z,21.1
2019-05-18T17:58:41.000Z,21
2019-05-18T18:08:42.000Z,20.9
2019-05-18T18:18:42.000Z,20.9
2019-05-18T18:28:42.000Z,20.9
2019-05-18T18:38:44.000Z,21
2019-05-18T18:48:43.000Z,20.9
2019-05-18T18:58:42.000Z,20.9
2019-05-18T19:08:42.000Z,20.9
2019-05-18T19:18:42.000Z,20.8
2019-05-18T19:38:42.000Z,20.9
2019-05-18T19:48:42.000Z,21
2019-05-18T19:58:42.000Z,20.9
2019-05-18T20:08:43.000Z,20.9
2019-05-18T20:18:42.000Z,21
2019-05-18T20:28:42.000Z,20.9
2019-05-18T20:38:42.000Z,20.8
2019-05-18T20:48:43.000Z,20.9
2019-05-18T20:58:42.000Z,20.8
2019-05-18T21:08:42.000Z,20.9
2019-05-18T21:18:46.000Z,20.7
2019-05-18T21:28:42.000Z,20.9
2019-05-18T21:38:42.000Z,20.9
2019-05-18T21:48:42.000Z,20.9
2019-05-18T21:58:42.000Z,20.9
2019-05-18T22:08:42.000Z,21
2019-05-18T22:18:42.000Z,20.9
2019-05-18T22:28:42.000Z,20.9
2019-05-18T22:38:43.000Z,20.9
2019-05-18T22:48:42.000Z,20.9
2019-05-18T22:58:45.000Z,20.9
2019-05-18T23:08:44.000Z,20.9
2019-05-18T23:18:42.000Z,20.8
2019-05-18T23:28:42.000Z,21
2019-05-18T23:38:42.000Z,20.9
2019-05-18T23:48:42.000Z,20.8
2019-05-18T23:58:42.000Z,20.5
